Time;durP1;ratioP1;P1;durP2;ratioP2;P2;SDS_P1;SDS_P2;PMS_P1;PMS_P2;Temp;Humidity;BMP_temperature;BMP_pressure;BME280_temperature;BME280_humidity;BME280_pressure;Samples;Min_cycle;Max_cycle;Signal;HPM_P1;HPM_P2
2021/05/04 00:00:14;;;;;;;2.60;1.38;;;12.70;50.90;;;;;;2075529;28;20056;-82
2021/05/04 00:01:14;;;;;;;2.30;1.23;;;12.70;50.30;;;;;;2064266;28;20031;-83
2021/05/04 00:02:15;;;;;;;2.70;1.30;;;12.70;50.30;;;;;;2063999;28;20022;-83
2021/05/04 00:03:16;;;;;;;3.38;1.15;;;12.80;50.40;;;;;;2062255;28;20121;-83
2021/05/04 00:04:16;;;;;;;2.63;1.00;;;12.80;50.30;;;;;;2058697;28;20038;-82
2021/05/04 00:05:17;;;;;;;1.95;1.20;;;12.80;50.40;;;;;;2062560;28;20030;-83
2021/05/04 00:06:18;;;;;;;1.80;1.23;;;12.80;50.30;;;;;;2063997;28;20077;-83
2021/05/04 00:07:19;;;;;;;3.65;1.10;;;12.80;50.30;;;;;;2070880;28;20026;-83
2021/05/04 00:08:22;;;;;;;3.97;1.38;;;12.80;50.10;;;;;;2071582;28;20085;-83
2021/05/04 00:09:23;;;;;;;2.58;1.23;;;12.80;50.10;;;;;;2070042;28;20042;-83
2021/05/04 00:10:24;;;;;;;4.10;1.30;;;12.80;50.00;;;;;;2073585;28;20391;-83
2021/05/04 00:11:25;;;;;;;3.08;1.35;;;12.80;50.10;;;;;;2068658;28;20037;-84
2021/05/04 00:12:26;;;;;;;3.63;1.05;;;12.80;50.10;;;;;;2082772;28;20449;-83
2021/05/04 00:13:26;;;;;;;2.00;1.20;;;12.80;50.10;;;;;;2072470;28;20065;-84
2021/05/04 00:14:28;;;;;;;3.10;1.30;;;12.80;50.30;;;;;;2064210;28;20025;-84
2021/05/04 00:15:29;;;;;;;4.35;1.40;;;12.80;50.20;;;;;;2075680;28;20034;-84
2021/05/04 00:16:29;;;;;;;2.22;1.05;;;12.80;50.20;;;;;;2071773;28;20029;-83
2021/05/04 00:17:30;;;;;;;5.85;1.45;;;12.80;50.20;;;;;;2071262;28;20065;-83
2021/05/04 00:18:31;;;;;;;3.03;1.20;;;12.80;50.10;;;;;;2063195;28;20018;-84
2021/05/04 00:19:32;;;;;;;3.17;0.90;;;12.80;50.20;;;;;;2053573;28;20042;-84
2021/05/04 00:20:32;;;;;;;3.33;1.20;;;12.90;50.30;;;;;;2053796;28;20030;-84
2021/05/04 00:21:33;;;;;;;2.78;1.23;;;12.90;50.40;;;;;;2055800;28;20122;-83
2021/05/04 00:22:34;;;;;;;4.65;1.20;;;12.90;50.40;;;;;;2056714;28;20077;-84
2021/05/04 00:23:35;;;;;;;2.55;1.10;;;12.80;50.50;;;;;;2069729;28;20463;-84
2021/05/04 00:24:35;;;;;;;3.05;1.23;;;12.90;50.60;;;;;;2066600;28;20409;-83
2021/05/04 00:25:36;;;;;;;2.45;1.20;;;12.80;50.60;;;;;;2073284;28;20157;-84
2021/05/04 00:26:37;;;;;;;2.72;1.05;;;12.80;50.60;;;;;;2075828;28;20029;-83
2021/05/04 00:27:37;;;;;;;3.35;1.30;;;12.80;50.60;;;;;;2080588;28;20106;-83
2021/05/04 00:28:38;;;;;;;4.70;1.38;;;12.80;50.60;;;;;;2075416;28;20108;-83
2021/05/04 00:29:38;;;;;;;3.38;1.50;;;12.80;50.60;;;;;;2086656;28;20120;-84
2021/05/04 00:30:39;;;;;;;4.63;1.38;;;12.80;50.80;;;;;;2082553;28;20029;-83
2021/05/04 00:31:40;;;;;;;5.55;1.52;;;12.80;51.00;;;;;;2077281;28;20026;-83
2021/05/04 00:32:40;;;;;;;2.55;1.05;;;12.80;51.30;;;;;;2076168;28;20071;-83
2021/05/04 00:33:41;;;;;;;4.30;1.20;;;12.70;51.50;;;;;;2077839;28;20062;-83
2021/05/04 00:34:42;;;;;;;4.28;1.20;;;12.70;51.70;;;;;;2077330;28;20045;-83
2021/05/04 00:35:43;;;;;;;3.60;1.30;;;12.70;52.00;;;;;;2073413;28;20065;-83
2021/05/04 00:36:43;;;;;;;3.70;1.15;;;12.70;52.30;;;;;;2058042;28;20035;-83
2021/05/04 00:37:44;;;;;;;5.32;1.00;;;12.60;52.40;;;;;;2066106;28;20069;-83
2021/05/04 00:38:44;;;;;;;3.38;1.33;;;12.60;52.80;;;;;;2066303;28;20046;-85
2021/05/04 00:39:45;;;;;;;1.95;1.20;;;12.50;53.10;;;;;;2064592;28;20030;-84
2021/05/04 00:40:46;;;;;;;3.70;1.30;;;12.50;53.40;;;;;;2065004;28;20404;-84
2021/05/04 00:41:46;;;;;;;4.85;1.17;;;12.40;53.60;;;;;;2072942;28;20022;-84
2021/05/04 00:42:47;;;;;;;2.20;1.00;;;12.40;54.00;;;;;;2072773;28;20026;-84
2021/05/04 00:43:49;;;;;;;2.55;1.20;;;12.30;54.30;;;;;;2064950;28;20019;-83
2021/05/04 00:44:50;;;;;;;3.38;1.30;;;12.30;54.60;;;;;;2080090;28;20088;-84
2021/05/04 00:45:51;;;;;;;2.13;1.10;;;12.20;54.90;;;;;;2072856;28;20377;-83
2021/05/04 00:46:51;;;;;;;2.38;1.13;;;12.10;55.10;;;;;;2071643;28;20407;-83
2021/05/04 00:47:52;;;;;;;3.33;1.40;;;12.10;55.60;;;;;;2064315;28;20594;-82
2021/05/04 00:48:52;;;;;;;4.22;1.17;;;12.00;56.20;;;;;;2067510;28;20109;-83
2021/05/04 00:49:53;;;;;;;3.47;1.50;;;12.00;56.60;;;;;;2073118;28;20109;-83
2021/05/04 00:50:54;;;;;;;2.28;1.20;;;11.90;56.80;;;;;;2083600;28;20112;-83
2021/05/04 00:51:55;;;;;;;3.47;1.20;;;11.80;57.20;;;;;;2081045;28;20084;-84
2021/05/04 00:52:56;;;;;;;2.88;1.58;;;11.70;57.50;;;;;;2068874;28;20069;-84
2021/05/04 00:53:56;;;;;;;1.85;1.20;;;11.70;57.90;;;;;;2090691;28;20044;-82
2021/05/04 00:54:58;;;;;;;2.30;1.10;;;11.60;58.00;;;;;;2084055;28;20534;-84
2021/05/04 00:56:00;;;;;;;4.80;1.20;;;11.50;58.30;;;;;;2082211;28;20037;-83
2021/05/04 00:57:01;;;;;;;2.75;1.10;;;11.50;58.70;;;;;;2082987;28;20036;-83
2021/05/04 00:58:02;;;;;;;3.85;1.15;;;11.40;58.80;;;;;;2083616;28;20483;-83
2021/05/04 00:59:03;;;;;;;4.50;1.33;;;11.30;59.30;;;;;;2075352;28;20044;-83
2021/05/04 01:00:05;;;;;;;3.80;1.30;;;11.30;60.00;;;;;;2065497;28;20106;-83
2021/05/04 01:01:06;;;;;;;2.90;1.30;;;11.20;60.50;;;;;;2079789;28;20101;-83
2021/05/04 01:02:07;;;;;;;2.22;1.02;;;11.10;60.80;;;;;;2085549;28;20064;-83
2021/05/04 01:03:09;;;;;;;2.20;1.10;;;11.10;61.10;;;;;;2073102;28;20543;-83
2021/05/04 01:04:11;;;;;;;2.78;1.20;;;11.00;61.20;;;;;;2081171;28;20116;-83
2021/05/04 01:05:12;;;;;;;2.90;1.17;;;10.90;61.40;;;;;;2093252;28;20031;-83
2021/05/04 01:06:13;;;;;;;3.88;1.10;;;10.90;62.30;;;;;;2081370;28;20060;-83
2021/05/04 01:07:13;;;;;;;3.50;1.20;;;10.80;62.30;;;;;;2071789;28;20405;-81
2021/05/04 01:08:14;;;;;;;3.53;1.25;;;10.70;62.70;;;;;;2071627;28;20037;-83
2021/05/04 01:09:16;;;;;;;2.80;1.20;;;10.70;62.90;;;;;;2084149;28;20115;-82
2021/05/04 01:10:17;;;;;;;1.83;1.02;;;10.60;63.40;;;;;;2077028;28;20120;-83
2021/05/04 01:11:17;;;;;;;3.80;1.10;;;10.60;63.90;;;;;;2078083;28;20395;-82
2021/05/04 01:12:18;;;;;;;8.70;1.20;;;10.50;64.00;;;;;;2062637;28;20037;-82
2021/05/04 01:13:19;;;;;;;3.22;1.08;;;10.50;64.40;;;;;;2071962;28;20083;-82
2021/05/04 01:14:21;;;;;;;2.05;1.10;;;10.40;64.90;;;;;;2074645;28;20080;-82
2021/05/04 01:15:21;;;;;;;3.42;1.20;;;10.40;64.90;;;;;;2054945;28;20929;-83
2021/05/04 01:16:22;;;;;;;4.82;1.15;;;10.30;65.20;;;;;;2063610;28;20030;-82
2021/05/04 01:17:22;;;;;;;2.95;1.30;;;10.30;65.50;;;;;;2071893;28;20419;-82
2021/05/04 01:18:23;;;;;;;2.60;1.00;;;10.20;66.40;;;;;;2067234;28;20117;-83
2021/05/04 01:19:24;;;;;;;2.60;1.02;;;10.10;66.70;;;;;;2060207;28;20103;-82
2021/05/04 01:20:25;;;;;;;2.80;1.35;;;10.10;66.80;;;;;;2075931;28;20022;-82
2021/05/04 01:21:26;;;;;;;2.92;1.10;;;10.00;67.10;;;;;;2087647;28;20041;-81
2021/05/04 01:22:26;;;;;;;2.47;1.20;;;10.00;67.30;;;;;;2071934;28;20026;-82
2021/05/04 01:23:27;;;;;;;3.95;1.27;;;9.90;67.50;;;;;;2067309;28;20083;-83
2021/05/04 01:24:27;;;;;;;2.72;1.02;;;9.90;67.70;;;;;;2078014;28;20029;-82
2021/05/04 01:25:28;;;;;;;3.35;1.00;;;9.80;68.10;;;;;;2093311;28;20471;-83
2021/05/04 01:26:29;;;;;;;3.10;1.20;;;9.80;68.50;;;;;;2079363;28;20030;-82
2021/05/04 01:27:30;;;;;;;5.35;1.30;;;9.80;68.60;;;;;;2071804;28;20121;-82
2021/05/04 01:28:31;;;;;;;2.63;1.30;;;9.70;68.60;;;;;;2071341;28;20121;-82
2021/05/04 01:29:31;;;;;;;2.70;1.38;;;9.70;68.70;;;;;;2078511;28;20107;-82
2021/05/04 01:30:32;;;;;;;4.43;1.35;;;9.70;69.10;;;;;;2074682;28;20088;-83
2021/05/04 01:31:33;;;;;;;2.83;1.30;;;9.70;69.20;;;;;;2067381;28;20041;-83
2021/05/04 01:32:33;;;;;;;3.90;1.40;;;9.70;69.40;;;;;;2072627;28;20030;-83
2021/05/04 01:33:34;;;;;;;3.45;1.30;;;9.70;69.50;;;;;;2071646;28;20129;-83
2021/05/04 01:34:35;;;;;;;2.88;1.27;;;9.60;69.60;;;;;;2069064;28;20057;-83
2021/05/04 01:35:36;;;;;;;3.10;1.48;;;9.60;69.80;;;;;;2069757;28;20033;-83
2021/05/04 01:36:37;;;;;;;5.10;1.67;;;9.60;70.00;;;;;;2076280;28;20033;-82
2021/05/04 01:37:38;;;;;;;2.45;1.33;;;9.60;70.10;;;;;;2095824;28;20036;-82
2021/05/04 01:38:39;;;;;;;4.80;1.25;;;9.60;70.40;;;;;;2094978;28;20386;-82
2021/05/04 01:39:48;;;;;;;2.75;1.20;;;9.60;70.50;;;;;;2092470;28;20029;-82
2021/05/04 01:40:49;;;;;;;3.17;1.38;;;9.60;70.50;;;;;;2085984;28;20021;-82
2021/05/04 01:41:50;;;;;;;3.42;1.25;;;9.50;70.60;;;;;;2094294;28;20028;-82
2021/05/04 01:42:50;;;;;;;2.42;1.40;;;9.50;70.80;;;;;;2079839;28;20056;-84
2021/05/04 01:43:51;;;;;;;1.60;1.02;;;9.60;70.70;;;;;;2063543;28;20022;-83
2021/05/04 01:44:52;;;;;;;3.08;1.08;;;9.50;70.80;;;;;;2079484;28;20398;-81
2021/05/04 01:45:52;;;;;;;2.05;1.10;;;9.50;70.90;;;;;;2086935;28;20074;-82
2021/05/04 01:46:53;;;;;;;2.03;1.13;;;9.50;71.10;;;;;;2079092;28;20025;-83
2021/05/04 01:47:54;;;;;;;4.35;1.38;;;9.50;71.10;;;;;;2059134;28;20493;-82
2021/05/04 01:48:54;;;;;;;2.72;1.20;;;9.60;71.30;;;;;;2055934;28;20026;-83
2021/05/04 01:49:55;;;;;;;2.35;1.20;;;9.50;72.20;;;;;;2071734;28;20037;-83
2021/05/04 01:50:56;;;;;;;2.00;1.20;;;9.60;71.70;;;;;;2068780;28;20054;-83
2021/05/04 01:51:57;;;;;;;2.13;1.25;;;9.50;71.50;;;;;;2079378;28;20486;-83
2021/05/04 01:52:58;;;;;;;1.55;1.15;;;9.50;71.60;;;;;;2075674;28;20039;-83
2021/05/04 01:53:59;;;;;;;2.47;1.00;;;9.50;71.60;;;;;;2063794;28;20061;-83
2021/05/04 01:55:00;;;;;;;2.50;1.40;;;9.50;71.70;;;;;;2063027;28;20426;-83
2021/05/04 01:56:01;;;;;;;2.55;1.20;;;9.50;71.90;;;;;;2075391;28;20029;-83
2021/05/04 01:57:03;;;;;;;2.20;1.17;;;9.50;72.00;;;;;;2066602;28;20628;-83
2021/05/04 01:58:04;;;;;;;2.38;1.20;;;9.50;72.10;;;;;;2063815;28;20495;-83
2021/05/04 01:59:06;;;;;;;1.58;0.95;;;9.50;72.10;;;;;;2061217;28;20029;-83
2021/05/04 02:00:09;;;;;;;2.38;1.20;;;9.50;72.70;;;;;;2054526;28;20412;-83
2021/05/04 02:01:09;;;;;;;2.42;1.10;;;9.50;72.50;;;;;;2078403;28;20026;-83
2021/05/04 02:02:10;;;;;;;2.47;1.40;;;9.50;72.70;;;;;;2075457;28;20045;-83
2021/05/04 02:03:11;;;;;;;3.67;1.35;;;9.50;72.80;;;;;;2080064;28;20116;-83
2021/05/04 02:04:12;;;;;;;2.42;1.50;;;9.50;73.00;;;;;;2087772;28;20021;-83
2021/05/04 02:05:13;;;;;;;2.35;1.30;;;9.50;73.10;;;;;;2079632;28;20037;-82
2021/05/04 02:06:13;;;;;;;2.92;1.30;;;9.50;73.40;;;;;;2078788;28;20104;-83
2021/05/04 02:07:14;;;;;;;2.17;1.35;;;9.50;73.80;;;;;;2063684;28;20065;-82
2021/05/04 02:08:15;;;;;;;3.72;1.48;;;9.40;73.80;;;;;;2063660;28;20026;-82
2021/05/04 02:09:16;;;;;;;3.20;1.48;;;9.40;73.90;;;;;;2063437;28;20373;-83
2021/05/04 02:10:16;;;;;;;3.30;1.55;;;9.40;74.30;;;;;;2067606;28;20065;-82
2021/05/04 02:11:17;;;;;;;4.10;1.50;;;9.40;74.50;;;;;;2067566;28;20029;-83
2021/05/04 02:12:18;;;;;;;4.75;1.70;;;9.40;74.40;;;;;;2064595;28;20026;-83
2021/05/04 02:13:18;;;;;;;1.58;1.23;;;9.40;74.40;;;;;;2056102;28;20121;-83
2021/05/04 02:14:19;;;;;;;2.20;1.40;;;9.40;74.50;;;;;;2072190;28;20041;-83
2021/05/04 02:15:20;;;;;;;2.78;1.65;;;9.30;74.80;;;;;;2079130;28;20037;-82
2021/05/04 02:16:20;;;;;;;3.45;1.50;;;9.30;75.10;;;;;;2077159;28;20389;-82
2021/05/04 02:17:21;;;;;;;3.25;1.70;;;9.30;75.00;;;;;;2079968;28;20093;-83
2021/05/04 02:18:22;;;;;;;2.42;1.25;;;9.30;75.10;;;;;;2062236;28;20045;-82
2021/05/04 02:19:22;;;;;;;2.60;1.50;;;9.30;75.20;;;;;;2059240;28;20094;-82
2021/05/04 02:20:23;;;;;;;2.60;1.50;;;9.30;75.30;;;;;;2056811;28;20396;-82
2021/05/04 02:21:24;;;;;;;3.60;1.50;;;9.30;75.30;;;;;;2062573;28;20074;-82
2021/05/04 02:22:25;;;;;;;2.30;1.50;;;9.30;75.40;;;;;;2081330;28;20032;-82
2021/05/04 02:23:25;;;;;;;2.80;1.48;;;9.30;75.70;;;;;;2072167;28;20034;-82
2021/05/04 02:24:26;;;;;;;3.22;1.60;;;9.30;75.70;;;;;;2064598;28;20038;-83
2021/05/04 02:25:27;;;;;;;3.28;1.70;;;9.30;75.80;;;;;;2068559;28;20022;-82
2021/05/04 02:26:28;;;;;;;3.33;1.75;;;9.20;76.30;;;;;;2079326;28;20032;-83
2021/05/04 02:27:29;;;;;;;3.30;1.60;;;9.30;76.30;;;;;;2062388;28;20115;-83
2021/05/04 02:28:29;;;;;;;2.72;1.70;;;9.30;76.10;;;;;;2054847;28;20058;-83
2021/05/04 02:29:30;;;;;;;2.30;1.50;;;9.30;76.50;;;;;;2064804;28;20117;-82
2021/05/04 02:30:34;;;;;;;3.50;1.80;;;9.30;76.40;;;;;;2056583;28;20097;-83
2021/05/04 02:31:35;;;;;;;3.22;1.70;;;9.30;76.40;;;;;;2061813;28;20457;-83
2021/05/04 02:32:36;;;;;;;1.80;1.20;;;9.20;76.50;;;;;;2071749;28;20030;-83
2021/05/04 02:33:38;;;;;;;2.67;1.50;;;9.30;76.50;;;;;;2057098;28;20382;-83
2021/05/04 02:34:39;;;;;;;3.15;1.40;;;9.30;76.40;;;;;;2061973;28;20416;-83
2021/05/04 02:35:39;;;;;;;2.47;1.52;;;9.30;76.30;;;;;;2073733;28;20058;-82
2021/05/04 02:36:40;;;;;;;2.30;1.38;;;9.30;76.40;;;;;;2065052;28;20030;-83
2021/05/04 02:37:41;;;;;;;2.15;1.45;;;9.30;76.60;;;;;;2064805;28;20076;-82
2021/05/04 02:38:41;;;;;;;4.03;1.70;;;9.30;76.90;;;;;;2064763;28;20023;-83
2021/05/04 02:39:42;;;;;;;2.17;1.40;;;9.30;76.80;;;;;;2054942;28;20129;-83
2021/05/04 02:40:43;;;;;;;2.15;1.38;;;9.30;77.20;;;;;;2062969;28;20130;-82
2021/05/04 02:41:43;;;;;;;2.13;1.20;;;9.30;76.80;;;;;;2061520;28;20085;-82
2021/05/04 02:42:44;;;;;;;3.30;1.50;;;9.30;77.00;;;;;;2064769;28;20088;-82
2021/05/04 02:43:45;;;;;;;1.52;1.15;;;9.30;76.80;;;;;;2073333;28;20033;-82
2021/05/04 02:44:46;;;;;;;4.00;1.40;;;9.30;76.80;;;;;;2070042;28;20392;-82
2021/05/04 02:45:46;;;;;;;2.95;1.75;;;9.30;77.80;;;;;;2069205;28;20388;-83
2021/05/04 02:46:47;;;;;;;2.88;1.40;;;9.30;77.20;;;;;;2067838;28;20030;-83
2021/05/04 02:47:48;;;;;;;2.60;1.63;;;9.30;77.10;;;;;;2061126;28;20388;-83
2021/05/04 02:48:48;;;;;;;3.88;1.63;;;9.30;77.10;;;;;;2071040;28;20046;-82
2021/05/04 02:49:49;;;;;;;3.08;1.45;;;9.30;77.40;;;;;;2087270;28;20395;-83
2021/05/04 02:50:50;;;;;;;3.90;1.40;;;9.30;77.40;;;;;;2084253;28;20128;-82
2021/05/04 02:51:50;;;;;;;2.22;1.30;;;9.30;77.40;;;;;;2077940;28;20022;-82
2021/05/04 02:52:51;;;;;;;2.22;1.13;;;9.30;77.60;;;;;;2069772;28;20034;-82
2021/05/04 02:53:52;;;;;;;2.67;1.20;;;9.30;77.30;;;;;;2076143;28;20120;-82
2021/05/04 02:54:53;;;;;;;3.55;1.33;;;9.30;77.40;;;;;;2083286;28;20037;-83
2021/05/04 02:55:53;;;;;;;2.00;1.20;;;9.30;77.60;;;;;;2081167;28;20108;-81
2021/05/04 02:56:54;;;;;;;2.22;1.20;;;9.30;77.60;;;;;;2070912;28;20132;-82
2021/05/04 02:57:55;;;;;;;4.53;1.50;;;9.30;78.00;;;;;;2064853;28;20038;-83
2021/05/04 02:58:56;;;;;;;2.92;1.55;;;9.30;77.90;;;;;;2080773;28;20483;-83
2021/05/04 02:59:56;;;;;;;2.10;1.25;;;9.30;77.90;;;;;;2076409;28;20112;-83
2021/05/04 03:00:58;;;;;;;3.03;1.30;;;9.20;77.90;;;;;;2066236;28;20034;-83
2021/05/04 03:02:00;;;;;;;2.55;1.50;;;9.20;78.00;;;;;;2073368;28;20033;-84
2021/05/04 03:03:00;;;;;;;1.60;1.17;;;9.20;78.10;;;;;;2080617;28;20026;-82
2021/05/04 03:04:01;;;;;;;2.65;1.50;;;9.30;78.20;;;;;;2087478;28;20035;-83
2021/05/04 03:05:02;;;;;;;2.30;1.40;;;9.20;78.60;;;;;;2080943;28;20026;-82
2021/05/04 03:06:04;;;;;;;2.13;1.40;;;9.20;78.50;;;;;;2070924;28;20037;-82
2021/05/04 03:07:05;;;;;;;3.45;1.65;;;9.20;78.50;;;;;;2060619;28;20550;-83
2021/05/04 03:08:05;;;;;;;3.47;1.50;;;9.20;78.70;;;;;;2079308;28;20067;-82
2021/05/04 03:09:06;;;;;;;2.38;1.50;;;9.20;78.80;;;;;;2080708;28;20022;-83
2021/05/04 03:10:08;;;;;;;1.95;1.27;;;9.10;78.70;;;;;;2080259;28;20052;-82
2021/05/04 03:11:09;;;;;;;2.63;1.20;;;9.10;78.80;;;;;;2080182;28;20045;-83
2021/05/04 03:12:10;;;;;;;3.10;1.40;;;9.20;79.00;;;;;;2080737;28;20029;-83
2021/05/04 03:13:11;;;;;;;3.55;1.27;;;9.10;79.30;;;;;;2069985;28;20030;-83
2021/05/04 03:14:11;;;;;;;2.75;1.30;;;9.10;79.10;;;;;;2068848;28;20895;-83
2021/05/04 03:15:12;;;;;;;2.05;1.50;;;9.10;79.30;;;;;;2067814;28;20578;-83
2021/05/04 03:16:13;;;;;;;3.00;1.60;;;9.10;79.40;;;;;;2077679;28;20503;-83
2021/05/04 03:17:13;;;;;;;2.50;1.48;;;9.10;79.60;;;;;;2078207;28;20026;-82
2021/05/04 03:18:14;;;;;;;2.33;1.27;;;9.10;79.60;;;;;;2072632;28;20484;-82
2021/05/04 03:19:15;;;;;;;2.95;1.33;;;9.10;79.40;;;;;;2072422;28;20149;-83
2021/05/04 03:20:15;;;;;;;2.67;1.20;;;9.10;79.50;;;;;;2072597;28;20129;-83
2021/05/04 03:21:16;;;;;;;3.38;1.27;;;9.10;79.50;;;;;;2066600;28;20575;-83
2021/05/04 03:22:17;;;;;;;2.78;1.40;;;9.10;79.50;;;;;;2058436;28;20394;-83
2021/05/04 03:23:19;;;;;;;2.60;1.48;;;9.10;79.50;;;;;;2072609;28;20030;-83
2021/05/04 03:24:20;;;;;;;2.92;1.48;;;9.10;79.70;;;;;;2066000;28;20081;-83
2021/05/04 03:25:20;;;;;;;2.08;1.25;;;9.10;79.70;;;;;;2072817;28;20042;-82
2021/05/04 03:26:21;;;;;;;2.65;1.58;;;9.10;79.80;;;;;;2080300;28;20112;-83
2021/05/04 03:27:22;;;;;;;2.78;1.25;;;9.10;79.70;;;;;;2084751;28;20124;-83
2021/05/04 03:28:22;;;;;;;2.40;1.40;;;9.10;79.80;;;;;;2076978;28;20041;-82
2021/05/04 03:29:23;;;;;;;3.85;1.70;;;9.10;79.70;;;;;;2080257;28;20034;-83
2021/05/04 03:30:24;;;;;;;3.13;1.45;;;9.10;79.80;;;;;;2068977;28;20070;-82
2021/05/04 03:31:24;;;;;;;2.83;1.35;;;9.10;79.80;;;;;;2062979;28;20086;-83
2021/05/04 03:32:25;;;;;;;2.72;1.52;;;9.20;79.80;;;;;;2070263;28;20395;-83
2021/05/04 03:33:26;;;;;;;3.10;1.45;;;9.20;79.80;;;;;;2065010;28;20134;-83
2021/05/04 03:34:27;;;;;;;2.58;1.42;;;9.20;79.70;;;;;;2080097;28;20033;-83
2021/05/04 03:35:27;;;;;;;2.58;1.35;;;9.20;79.80;;;;;;2078898;28;20036;-82
2021/05/04 03:36:28;;;;;;;2.33;1.20;;;9.20;79.70;;;;;;2074821;28;20476;-82
2021/05/04 03:37:28;;;;;;;1.58;1.30;;;9.20;79.60;;;;;;2076263;28;20083;-83
2021/05/04 03:38:29;;;;;;;2.42;1.23;;;9.20;79.70;;;;;;2069890;28;20030;-82
2021/05/04 03:39:30;;;;;;;2.47;1.30;;;9.20;79.50;;;;;;2064621;28;20030;-83
2021/05/04 03:40:31;;;;;;;1.88;1.20;;;9.30;79.50;;;;;;2067077;28;20076;-83
2021/05/04 03:41:32;;;;;;;2.53;1.50;;;9.20;79.30;;;;;;2081202;28;20026;-83
2021/05/04 03:42:32;;;;;;;2.47;1.40;;;9.30;79.30;;;;;;2072750;28;20034;-83
2021/05/04 03:43:33;;;;;;;2.47;1.50;;;9.30;79.40;;;;;;2063912;28;20498;-83
2021/05/04 03:44:33;;;;;;;2.17;1.20;;;9.30;79.30;;;;;;2078381;28;20029;-83
2021/05/04 03:45:34;;;;;;;2.58;1.30;;;9.30;79.30;;;;;;2080324;28;20040;-83
2021/05/04 03:46:35;;;;;;;4.57;1.50;;;9.30;79.80;;;;;;2052068;28;20027;-83
2021/05/04 03:47:38;;;;;;;2.33;1.35;;;9.30;79.60;;;;;;2064651;28;20022;-83
2021/05/04 03:48:39;;;;;;;3.70;1.30;;;9.30;79.50;;;;;;2085744;28;20078;-83
2021/05/04 03:49:39;;;;;;;2.10;1.40;;;9.30;79.40;;;;;;2077960;28;20033;-83
2021/05/04 03:50:40;;;;;;;2.72;1.20;;;9.30;79.40;;;;;;2069591;28;20096;-82
2021/05/04 03:51:41;;;;;;;1.80;1.20;;;9.30;79.50;;;;;;2080595;28;20018;-83
2021/05/04 03:52:42;;;;;;;1.92;1.33;;;9.30;79.60;;;;;;2062377;28;20034;-83
2021/05/04 03:53:42;;;;;;;2.55;1.20;;;9.30;79.70;;;;;;2072437;28;20119;-84
2021/05/04 03:54:44;;;;;;;2.30;1.20;;;9.30;79.80;;;;;;2081621;28;20025;-83
2021/05/04 03:55:46;;;;;;;2.70;1.25;;;9.20;79.90;;;;;;2059406;28;20397;-83
2021/05/04 03:56:47;;;;;;;4.22;1.48;;;9.20;80.20;;;;;;2063025;28;20135;-83
2021/05/04 03:57:48;;;;;;;3.03;1.52;;;9.20;80.10;;;;;;2077870;28;20530;-83
2021/05/04 03:58:48;;;;;;;2.38;1.30;;;9.10;80.30;;;;;;2080339;28;20511;-83
2021/05/04 03:59:50;;;;;;;3.13;1.40;;;9.20;80.40;;;;;;2079941;28;20029;-83
2021/05/04 04:00:51;;;;;;;2.38;1.50;;;9.20;80.70;;;;;;2089131;28;20507;-83
2021/05/04 04:01:51;;;;;;;3.50;1.30;;;9.10;80.60;;;;;;2088828;28;20036;-83
2021/05/04 04:02:52;;;;;;;2.38;1.35;;;9.10;80.80;;;;;;2080578;28;20113;-84
2021/05/04 04:03:53;;;;;;;1.88;1.38;;;9.10;80.80;;;;;;2078087;28;20495;-82
2021/05/04 04:04:54;;;;;;;1.52;1.15;;;9.00;80.80;;;;;;2075738;28;20061;-82
2021/05/04 04:05:56;;;;;;;1.90;1.17;;;9.00;80.90;;;;;;2063938;28;20057;-82
2021/05/04 04:06:56;;;;;;;1.85;1.25;;;9.00;81.10;;;;;;2059022;28;20035;-83
2021/05/04 04:07:57;;;;;;;2.03;1.40;;;9.00;81.20;;;;;;2057149;28;20042;-83
2021/05/04 04:08:58;;;;;;;2.28;1.45;;;9.00;81.30;;;;;;2067166;28;20034;-82
2021/05/04 04:09:58;;;;;;;2.97;1.30;;;9.00;81.50;;;;;;2055376;28;20593;-82
2021/05/04 04:10:59;;;;;;;2.85;1.40;;;9.00;81.50;;;;;;2070485;28;20535;-83
2021/05/04 04:12:00;;;;;;;2.60;1.52;;;8.90;81.50;;;;;;2069408;28;20066;-82
2021/05/04 04:13:00;;;;;;;1.95;1.20;;;9.00;81.50;;;;;;2064777;28;20104;-82
2021/05/04 04:14:01;;;;;;;2.10;1.30;;;8.90;81.50;;;;;;2077155;28;20033;-83
2021/05/04 04:15:02;;;;;;;2.78;1.38;;;9.00;81.60;;;;;;2063458;28;20030;-82
2021/05/04 04:16:03;;;;;;;2.25;1.13;;;9.00;81.60;;;;;;2064313;28;20030;-83
2021/05/04 04:17:04;;;;;;;2.50;1.40;;;9.00;81.70;;;;;;2067638;28;20046;-82
2021/05/04 04:18:05;;;;;;;1.85;1.10;;;8.90;81.60;;;;;;2065020;28;20041;-83
2021/05/04 04:19:08;;;;;;;2.75;1.17;;;9.00;81.70;;;;;;2056131;28;20114;-82
2021/05/04 04:20:09;;;;;;;2.25;1.50;;;9.00;81.80;;;;;;2062103;28;20126;-82
2021/05/04 04:21:09;;;;;;;1.58;1.00;;;9.00;81.90;;;;;;2080420;28;20405;-82
2021/05/04 04:22:10;;;;;;;1.75;1.17;;;9.00;81.90;;;;;;2072868;28;20125;-83
2021/05/04 04:23:11;;;;;;;3.67;1.40;;;9.00;81.80;;;;;;2073011;28;20030;-82
2021/05/04 04:24:11;;;;;;;3.58;1.20;;;9.00;81.80;;;;;;2079462;28;20045;-82
2021/05/04 04:25:12;;;;;;;2.35;1.38;;;9.00;82.50;;;;;;2063879;28;20030;-83
2021/05/04 04:26:13;;;;;;;2.28;1.40;;;9.00;81.80;;;;;;2064143;28;20105;-81
2021/05/04 04:27:13;;;;;;;2.00;1.25;;;9.00;81.80;;;;;;2075934;28;20033;-82
2021/05/04 04:28:14;;;;;;;2.90;1.27;;;9.00;81.80;;;;;;2070218;28;20033;-82
2021/05/04 04:29:15;;;;;;;1.85;1.13;;;9.00;81.80;;;;;;2069036;28;20113;-82
2021/05/04 04:30:16;;;;;;;1.88;1.27;;;9.00;81.70;;;;;;2079251;28;20033;-82
2021/05/04 04:31:16;;;;;;;2.47;1.40;;;9.00;82.00;;;;;;2088113;28;20043;-82
2021/05/04 04:32:17;;;;;;;2.42;1.40;;;9.00;81.90;;;;;;2086207;28;20035;-82
2021/05/04 04:33:25;;;;;;;2.47;1.55;;;9.00;82.00;;;;;;2071586;28;20154;-82
2021/05/04 04:34:25;;;;;;;2.25;1.40;;;9.00;82.00;;;;;;2069140;28;20027;-82
2021/05/04 04:35:26;;;;;;;2.55;1.30;;;9.00;82.10;;;;;;2068888;28;20054;-81
2021/05/04 04:36:27;;;;;;;2.35;1.30;;;9.00;82.10;;;;;;2066475;28;20400;-82
2021/05/04 04:37:27;;;;;;;3.67;1.25;;;9.00;82.10;;;;;;2086414;28;20124;-82
2021/05/04 04:38:28;;;;;;;1.98;1.20;;;9.00;82.30;;;;;;2072936;28;20074;-82
2021/05/04 04:39:28;;;;;;;2.70;1.58;;;8.90;82.50;;;;;;2067786;28;20448;-82
2021/05/04 04:40:29;;;;;;;2.30;1.13;;;8.90;82.50;;;;;;2074353;28;20121;-82
2021/05/04 04:41:30;;;;;;;2.80;1.33;;;8.90;82.60;;;;;;2075683;28;20017;-83
2021/05/04 04:42:31;;;;;;;2.65;1.38;;;8.90;82.60;;;;;;2060611;28;20030;-82
2021/05/04 04:43:31;;;;;;;3.78;1.30;;;8.90;82.80;;;;;;2061388;28;20042;-82
2021/05/04 04:44:32;;;;;;;2.95;1.30;;;8.90;82.80;;;;;;2080796;28;20044;-83
2021/05/04 04:45:33;;;;;;;2.30;1.40;;;8.90;83.10;;;;;;2081992;28;20075;-82
2021/05/04 04:46:40;;;;;;;2.25;1.40;;;8.90;83.20;;;;;;2076856;28;20056;-83
2021/05/04 04:47:41;;;;;;;2.25;1.42;;;8.80;83.70;;;;;;2081438;28;20507;-82
2021/05/04 04:48:41;;;;;;;2.80;1.45;;;8.80;83.50;;;;;;2090792;28;20048;-82
2021/05/04 04:49:42;;;;;;;1.70;1.20;;;8.80;83.50;;;;;;2079564;28;20030;-82
2021/05/04 04:50:43;;;;;;;2.65;1.20;;;8.80;83.50;;;;;;2066076;28;20031;-82
2021/05/04 04:51:44;;;;;;;3.53;1.55;;;8.80;83.60;;;;;;2067223;28;20039;-82
2021/05/04 04:52:45;;;;;;;2.33;1.23;;;8.80;83.80;;;;;;2083687;28;20061;-82
2021/05/04 04:53:46;;;;;;;4.57;1.33;;;8.70;83.70;;;;;;2083900;28;20041;-82
2021/05/04 04:54:46;;;;;;;2.25;1.40;;;8.80;84.10;;;;;;2071778;28;20069;-83
2021/05/04 04:55:47;;;;;;;2.42;1.48;;;8.70;83.90;;;;;;2082402;28;20029;-83
2021/05/04 04:56:48;;;;;;;2.45;1.50;;;8.70;84.00;;;;;;2089558;28;20025;-82
2021/05/04 04:57:48;;;;;;;2.83;1.30;;;8.70;84.20;;;;;;2071216;28;20030;-82
2021/05/04 04:58:49;;;;;;;3.75;1.40;;;8.70;84.20;;;;;;2068984;28;20030;-82
2021/05/04 04:59:49;;;;;;;2.33;1.20;;;8.70;84.20;;;;;;2072221;28;20030;-82
2021/05/04 05:00:50;;;;;;;3.08;1.30;;;8.70;84.20;;;;;;2072220;28;20025;-82
2021/05/04 05:01:51;;;;;;;4.18;1.23;;;8.80;84.10;;;;;;2059245;28;20026;-82
2021/05/04 05:02:52;;;;;;;2.47;1.33;;;8.80;84.70;;;;;;2070343;28;20444;-82
2021/05/04 05:03:52;;;;;;;3.13;1.20;;;8.80;84.20;;;;;;2073684;28;20128;-83
2021/05/04 05:04:53;;;;;;;1.77;1.25;;;8.80;84.20;;;;;;2069069;28;20034;-82
2021/05/04 05:05:54;;;;;;;2.40;1.40;;;8.80;84.10;;;;;;2071774;28;20025;-82
2021/05/04 05:06:54;;;;;;;1.42;1.10;;;8.80;84.30;;;;;;2080003;28;20061;-82
2021/05/04 05:07:55;;;;;;;2.60;1.20;;;8.80;84.20;;;;;;2078750;28;20029;-81
2021/05/04 05:08:56;;;;;;;2.13;1.30;;;8.80;84.20;;;;;;2072040;28;20088;-82
2021/05/04 05:09:56;;;;;;;2.22;1.20;;;8.80;84.20;;;;;;2080031;28;20076;-82
2021/05/04 05:10:57;;;;;;;3.20;1.38;;;8.80;84.20;;;;;;2066780;28;20617;-82
2021/05/04 05:11:58;;;;;;;2.13;1.30;;;8.80;84.20;;;;;;2055260;28;20101;-82
2021/05/04 05:12:58;;;;;;;2.72;1.48;;;8.90;84.30;;;;;;2058439;28;20586;-82
2021/05/04 05:13:59;;;;;;;2.03;1.40;;;8.80;84.20;;;;;;2081915;28;20081;-82
2021/05/04 05:15:02;;;;;;;2.53;1.10;;;8.80;84.90;;;;;;2077716;28;20028;-82
2021/05/04 05:16:02;;;;;;;1.83;1.30;;;8.80;84.80;;;;;;2086517;28;20074;-82
2021/05/04 05:17:03;;;;;;;1.42;1.10;;;8.80;84.20;;;;;;2080369;28;20045;-82
2021/05/04 05:18:06;;;;;;;2.28;1.20;;;8.80;84.20;;;;;;2080816;28;20100;-82
2021/05/04 05:19:21;;;;;;;1.60;1.20;;;8.90;84.30;;;;;;2070388;28;20023;-83
2021/05/04 05:20:32;;;;;;;1.98;1.10;;;8.90;84.90;;;;;;2078150;28;20048;-82